Hlavní strana
METAR-TAF:

METAR-TAF

Letiště :

Sikeston, Missouri, Spojené státy americké

zeměpisná šířka: 36-53-56N, zeměpisná délka: 089-33-42W, výška: 96 m

Aktuální stav počasí

Zpráva byla vytvořena před 24 minutami, v 18:15 UTC
Severní vítr 11 kt
Teplota 6°C
Vlhkost vzduchu 81%
Tlak 1023 hPa
Viditelnost: 16.1 km
Polojasno ve výšce 600 ft
Oblačno až skoro zataženo ve výšce 1500 ft
Zataženo ve výšce 6500 ft
slabý déšť

METAR: KSIK 181815Z AUTO 35011KT 10SM -RA SCT006 BKN015 OVC065 06/03 A3020 RMK AO2

Čas: 12:39 (18:39 UTC)


TAF: chybějící

Stav a předpovědi počasí z více než 4 000 letišť (zprávy METAR a TAF).

Červené a žluté tečky na mapě představují dostupné meteorologické stanice.

Když kurzor umístíte na tečku, zobrazí se název stanice.

Pak kliknutím zobrazíte stav a předpověď počasí.

Chcete-li změnit mapu, kliknutím na zelené tlačítko se znaménkem +mapu přiblížíte, kliknutím na zelené tlačítko se znaménkem – mapu oddálíte a kliknutím na zelené šipky přejdete na sousední mapy.


METAR-TAF: